sensor_id;sensor_type;location;lat;lon;timestamp;temperature;humidity
15341;DHT22;7770;52.158;5.372;2023-02-28T00:01:59;2.80;99.90
15341;DHT22;7770;52.158;5.372;2023-02-28T00:04:46;2.80;99.90
15341;DHT22;7770;52.158;5.372;2023-02-28T00:07:46;2.90;99.90
15341;DHT22;7770;52.158;5.372;2023-02-28T00:10:33;2.90;99.90
15341;DHT22;7770;52.158;5.372;2023-02-28T00:13:19;3.00;99.90
15341;DHT22;7770;52.158;5.372;2023-02-28T00:16:08;3.00;99.90
15341;DHT22;7770;52.158;5.372;2023-02-28T00:18:56;3.10;99.90
15341;DHT22;7770;52.158;5.372;2023-02-28T00:21:42;3.10;99.90
15341;DHT22;7770;52.158;5.372;2023-02-28T00:24:28;3.20;99.90
15341;DHT22;7770;52.158;5.372;2023-02-28T00:27:14;3.20;99.90
15341;DHT22;7770;52.158;5.372;2023-02-28T00:30:01;3.20;99.90
15341;DHT22;7770;52.158;5.372;2023-02-28T00:32:47;3.30;99.90
15341;DHT22;7770;52.158;5.372;2023-02-28T00:35:33;3.20;99.90
15341;DHT22;7770;52.158;5.372;2023-02-28T00:38:20;3.30;99.90
15341;DHT22;7770;52.158;5.372;2023-02-28T00:41:06;3.30;99.90
15341;DHT22;7770;52.158;5.372;2023-02-28T00:43:53;3.30;99.90
15341;DHT22;7770;52.158;5.372;2023-02-28T00:46:39;3.30;99.90
15341;DHT22;7770;52.158;5.372;2023-02-28T00:49:26;3.30;99.90
15341;DHT22;7770;52.158;5.372;2023-02-28T00:52:12;3.40;99.90
15341;DHT22;7770;52.158;5.372;2023-02-28T00:54:58;3.40;99.90
15341;DHT22;7770;52.158;5.372;2023-02-28T00:57:44;3.40;99.90
15341;DHT22;7770;52.158;5.372;2023-02-28T01:00:30;3.40;99.90
15341;DHT22;7770;52.158;5.372;2023-02-28T01:03:17;3.40;99.90
15341;DHT22;7770;52.158;5.372;2023-02-28T01:06:04;3.40;99.90
15341;DHT22;7770;52.158;5.372;2023-02-28T01:08:50;3.40;99.90
15341;DHT22;7770;52.158;5.372;2023-02-28T01:11:37;3.40;99.90
15341;DHT22;7770;52.158;5.372;2023-02-28T01:14:23;3.40;99.90
15341;DHT22;7770;52.158;5.372;2023-02-28T01:17:09;3.40;99.90
15341;DHT22;7770;52.158;5.372;2023-02-28T01:19:55;3.40;99.90
15341;DHT22;7770;52.158;5.372;2023-02-28T01:22:41;3.40;99.90
15341;DHT22;7770;52.158;5.372;2023-02-28T01:25:27;3.40;99.90
15341;DHT22;7770;52.158;5.372;2023-02-28T01:28:14;3.40;99.90
15341;DHT22;7770;52.158;5.372;2023-02-28T01:31:00;3.50;99.90
15341;DHT22;7770;52.158;5.372;2023-02-28T01:33:46;3.50;99.90
15341;DHT22;7770;52.158;5.372;2023-02-28T01:36:32;3.50;99.90
15341;DHT22;7770;52.158;5.372;2023-02-28T01:39:18;3.50;99.90
15341;DHT22;7770;52.158;5.372;2023-02-28T01:42:04;3.50;99.90
15341;DHT22;7770;52.158;5.372;2023-02-28T01:48:13;3.50;99.90
15341;DHT22;7770;52.158;5.372;2023-02-28T01:51:02;3.50;99.90
15341;DHT22;7770;52.158;5.372;2023-02-28T01:54:10;3.50;99.90
15341;DHT22;7770;52.158;5.372;2023-02-28T01:57:06;3.60;99.90
15341;DHT22;7770;52.158;5.372;2023-02-28T02:00:03;3.60;99.90
15341;DHT22;7770;52.158;5.372;2023-02-28T02:03:01;3.60;99.90
15341;DHT22;7770;52.158;5.372;2023-02-28T02:05:51;3.60;99.90
15341;DHT22;7770;52.158;5.372;2023-02-28T02:08:37;3.60;99.90
15341;DHT22;7770;52.158;5.372;2023-02-28T02:11:24;3.60;99.90
15341;DHT22;7770;52.158;5.372;2023-02-28T02:17:38;3.60;99.90
15341;DHT22;7770;52.158;5.372;2023-02-28T02:20:55;3.60;99.90
15341;DHT22;7770;52.158;5.372;2023-02-28T02:27:20;3.60;99.90
15341;DHT22;7770;52.158;5.372;2023-02-28T02:37:15;3.60;99.90
15341;DHT22;7770;52.158;5.372;2023-02-28T02:40:14;3.60;99.90
15341;DHT22;7770;52.158;5.372;2023-02-28T02:43:19;3.60;99.90
15341;DHT22;7770;52.158;5.372;2023-02-28T02:49:13;3.60;99.90
15341;DHT22;7770;52.158;5.372;2023-02-28T02:52:05;3.60;99.90
15341;DHT22;7770;52.158;5.372;2023-02-28T02:54:54;3.60;99.90
15341;DHT22;7770;52.158;5.372;2023-02-28T02:57:57;3.60;99.90
15341;DHT22;7770;52.158;5.372;2023-02-28T03:00:50;3.60;99.90
15341;DHT22;7770;52.158;5.372;2023-02-28T03:03:38;3.60;99.90
15341;DHT22;7770;52.158;5.372;2023-02-28T03:06:25;3.60;99.90
15341;DHT22;7770;52.158;5.372;2023-02-28T03:09:12;3.60;99.90
15341;DHT22;7770;52.158;5.372;2023-02-28T03:11:58;3.60;99.90
15341;DHT22;7770;52.158;5.372;2023-02-28T03:15:04;3.70;99.90
15341;DHT22;7770;52.158;5.372;2023-02-28T03:18:04;3.70;99.90
15341;DHT22;7770;52.158;5.372;2023-02-28T03:24:39;3.60;99.90
15341;DHT22;7770;52.158;5.372;2023-02-28T03:31:07;3.60;99.90
15341;DHT22;7770;52.158;5.372;2023-02-28T03:34:12;3.60;99.90
15341;DHT22;7770;52.158;5.372;2023-02-28T03:37:08;3.60;99.90
15341;DHT22;7770;52.158;5.372;2023-02-28T03:40:02;3.60;99.90
15341;DHT22;7770;52.158;5.372;2023-02-28T03:42:59;3.50;99.90
15341;DHT22;7770;52.158;5.372;2023-02-28T03:45:48;3.50;99.90
15341;DHT22;7770;52.158;5.372;2023-02-28T03:48:45;3.40;99.90
15341;DHT22;7770;52.158;5.372;2023-02-28T03:51:36;3.40;99.90
15341;DHT22;7770;52.158;5.372;2023-02-28T03:54:30;3.40;99.90
15341;DHT22;7770;52.158;5.372;2023-02-28T03:57:27;3.40;99.90
15341;DHT22;7770;52.158;5.372;2023-02-28T04:00:21;3.40;99.90
15341;DHT22;7770;52.158;5.372;2023-02-28T04:03:14;3.30;99.90
15341;DHT22;7770;52.158;5.372;2023-02-28T04:06:00;3.30;99.90
15341;DHT22;7770;52.158;5.372;2023-02-28T04:08:46;3.30;99.90
15341;DHT22;7770;52.158;5.372;2023-02-28T04:11:38;3.30;99.90
15341;DHT22;7770;52.158;5.372;2023-02-28T04:14:26;3.20;99.90
15341;DHT22;7770;52.158;5.372;2023-02-28T04:17:12;3.20;99.90
15341;DHT22;7770;52.158;5.372;2023-02-28T04:19:58;3.20;99.90
15341;DHT22;7770;52.158;5.372;2023-02-28T04:22:44;3.20;99.90
15341;DHT22;7770;52.158;5.372;2023-02-28T04:25:30;3.30;99.90
15341;DHT22;7770;52.158;5.372;2023-02-28T04:28:16;3.20;99.90
15341;DHT22;7770;52.158;5.372;2023-02-28T04:31:03;3.10;99.90
15341;DHT22;7770;52.158;5.372;2023-02-28T04:33:50;3.10;99.90
15341;DHT22;7770;52.158;5.372;2023-02-28T04:36:36;3.00;99.90
15341;DHT22;7770;52.158;5.372;2023-02-28T04:39:24;2.90;99.90
15341;DHT22;7770;52.158;5.372;2023-02-28T04:42:11;2.90;99.90
15341;DHT22;7770;52.158;5.372;2023-02-28T04:44:57;2.90;99.90
15341;DHT22;7770;52.158;5.372;2023-02-28T04:47:43;2.70;99.90
15341;DHT22;7770;52.158;5.372;2023-02-28T04:50:29;2.60;99.90
15341;DHT22;7770;52.158;5.372;2023-02-28T04:53:15;2.60;99.90
15341;DHT22;7770;52.158;5.372;2023-02-28T04:56:02;2.60;99.90
15341;DHT22;7770;52.158;5.372;2023-02-28T04:58:49;2.50;99.90
15341;DHT22;7770;52.158;5.372;2023-02-28T05:01:36;2.50;99.90
15341;DHT22;7770;52.158;5.372;2023-02-28T05:04:22;2.50;99.90
15341;DHT22;7770;52.158;5.372;2023-02-28T05:07:08;2.50;99.90
15341;DHT22;7770;52.158;5.372;2023-02-28T05:09:55;2.50;99.90
15341;DHT22;7770;52.158;5.372;2023-02-28T05:12:41;2.40;99.90
15341;DHT22;7770;52.158;5.372;2023-02-28T05:15:27;2.30;99.90
15341;DHT22;7770;52.158;5.372;2023-02-28T05:18:13;2.20;99.90
15341;DHT22;7770;52.158;5.372;2023-02-28T05:21:00;2.20;99.90
15341;DHT22;7770;52.158;5.372;2023-02-28T05:23:47;2.20;99.90
15341;DHT22;7770;52.158;5.372;2023-02-28T05:26:36;2.00;99.90
15341;DHT22;7770;52.158;5.372;2023-02-28T05:29:23;1.90;99.90
15341;DHT22;7770;52.158;5.372;2023-02-28T05:32:10;1.70;99.90
15341;DHT22;7770;52.158;5.372;2023-02-28T05:34:57;1.60;99.90
15341;DHT22;7770;52.158;5.372;2023-02-28T05:37:43;1.60;99.90
15341;DHT22;7770;52.158;5.372;2023-02-28T05:40:29;1.60;99.90
15341;DHT22;7770;52.158;5.372;2023-02-28T05:43:15;1.50;99.90
15341;DHT22;7770;52.158;5.372;2023-02-28T05:46:05;1.40;99.90
15341;DHT22;7770;52.158;5.372;2023-02-28T05:48:52;1.30;99.90
15341;DHT22;7770;52.158;5.372;2023-02-28T05:51:38;1.20;99.90
15341;DHT22;7770;52.158;5.372;2023-02-28T05:54:25;1.20;99.90
15341;DHT22;7770;52.158;5.372;2023-02-28T05:57:11;1.20;99.90
15341;DHT22;7770;52.158;5.372;2023-02-28T05:59:57;1.20;99.90
15341;DHT22;7770;52.158;5.372;2023-02-28T06:02:43;1.20;99.90
15341;DHT22;7770;52.158;5.372;2023-02-28T06:05:29;1.20;99.90
15341;DHT22;7770;52.158;5.372;2023-02-28T06:08:15;1.30;99.90
15341;DHT22;7770;52.158;5.372;2023-02-28T06:11:05;1.30;99.90
15341;DHT22;7770;52.158;5.372;2023-02-28T06:13:54;1.30;99.90
15341;DHT22;7770;52.158;5.372;2023-02-28T06:16:41;1.30;99.90
15341;DHT22;7770;52.158;5.372;2023-02-28T06:19:27;1.30;99.90
15341;DHT22;7770;52.158;5.372;2023-02-28T06:22:14;1.40;99.90
15341;DHT22;7770;52.158;5.372;2023-02-28T06:25:00;1.40;99.90
15341;DHT22;7770;52.158;5.372;2023-02-28T06:27:46;1.40;99.90
15341;DHT22;7770;52.158;5.372;2023-02-28T06:30:33;1.50;99.90
15341;DHT22;7770;52.158;5.372;2023-02-28T06:33:19;1.60;99.90
15341;DHT22;7770;52.158;5.372;2023-02-28T06:36:07;1.70;99.90
15341;DHT22;7770;52.158;5.372;2023-02-28T06:38:53;1.80;99.90
15341;DHT22;7770;52.158;5.372;2023-02-28T06:41:41;1.70;99.90
15341;DHT22;7770;52.158;5.372;2023-02-28T06:44:27;1.80;99.90
15341;DHT22;7770;52.158;5.372;2023-02-28T06:47:21;1.80;99.90
15341;DHT22;7770;52.158;5.372;2023-02-28T06:50:11;1.90;99.90
15341;DHT22;7770;52.158;5.372;2023-02-28T06:52:58;1.90;99.90
15341;DHT22;7770;52.158;5.372;2023-02-28T06:55:44;2.00;99.90
15341;DHT22;7770;52.158;5.372;2023-02-28T06:58:30;2.00;99.90
15341;DHT22;7770;52.158;5.372;2023-02-28T07:01:16;2.00;99.90
15341;DHT22;7770;52.158;5.372;2023-02-28T07:04:02;2.00;99.90
15341;DHT22;7770;52.158;5.372;2023-02-28T07:06:51;2.10;99.90
15341;DHT22;7770;52.158;5.372;2023-02-28T07:09:37;2.10;99.90
15341;DHT22;7770;52.158;5.372;2023-02-28T07:12:23;2.20;99.90
15341;DHT22;7770;52.158;5.372;2023-02-28T07:15:09;2.20;99.90
15341;DHT22;7770;52.158;5.372;2023-02-28T07:17:55;2.20;99.90
15341;DHT22;7770;52.158;5.372;2023-02-28T07:20:42;2.20;99.90
15341;DHT22;7770;52.158;5.372;2023-02-28T07:23:28;2.30;99.90
15341;DHT22;7770;52.158;5.372;2023-02-28T07:26:16;2.30;99.90
15341;DHT22;7770;52.158;5.372;2023-02-28T07:29:03;2.40;99.90
15341;DHT22;7770;52.158;5.372;2023-02-28T07:31:49;2.40;99.90
15341;DHT22;7770;52.158;5.372;2023-02-28T07:34:38;2.40;99.90
15341;DHT22;7770;52.158;5.372;2023-02-28T07:37:24;2.40;99.90
15341;DHT22;7770;52.158;5.372;2023-02-28T07:40:11;2.40;99.90
15341;DHT22;7770;52.158;5.372;2023-02-28T07:42:59;2.50;99.90
15341;DHT22;7770;52.158;5.372;2023-02-28T07:45:47;2.50;99.90
15341;DHT22;7770;52.158;5.372;2023-02-28T07:48:33;2.60;99.90
15341;DHT22;7770;52.158;5.372;2023-02-28T07:51:19;2.60;99.90
15341;DHT22;7770;52.158;5.372;2023-02-28T07:54:06;2.60;99.90
15341;DHT22;7770;52.158;5.372;2023-02-28T07:56:52;2.60;99.90
15341;DHT22;7770;52.158;5.372;2023-02-28T07:59:38;2.60;99.90
15341;DHT22;7770;52.158;5.372;2023-02-28T08:02:25;2.70;99.90
15341;DHT22;7770;52.158;5.372;2023-02-28T08:05:11;2.70;99.90
15341;DHT22;7770;52.158;5.372;2023-02-28T08:07:57;2.70;99.90
15341;DHT22;7770;52.158;5.372;2023-02-28T08:10:43;2.70;99.90
15341;DHT22;7770;52.158;5.372;2023-02-28T08:13:30;2.60;99.90
15341;DHT22;7770;52.158;5.372;2023-02-28T08:16:16;2.50;99.90
15341;DHT22;7770;52.158;5.372;2023-02-28T08:19:07;2.60;99.90
15341;DHT22;7770;52.158;5.372;2023-02-28T08:21:53;2.80;99.90
15341;DHT22;7770;52.158;5.372;2023-02-28T08:24:41;2.90;99.90
15341;DHT22;7770;52.158;5.372;2023-02-28T08:27:28;2.80;99.90
15341;DHT22;7770;52.158;5.372;2023-02-28T08:30:14;2.70;99.90
15341;DHT22;7770;52.158;5.372;2023-02-28T08:33:01;2.80;99.90
15341;DHT22;7770;52.158;5.372;2023-02-28T08:35:47;2.90;99.90
15341;DHT22;7770;52.158;5.372;2023-02-28T08:38:34;2.80;99.90
15341;DHT22;7770;52.158;5.372;2023-02-28T08:41:20;2.80;99.90
15341;DHT22;7770;52.158;5.372;2023-02-28T08:44:07;2.90;99.90
15341;DHT22;7770;52.158;5.372;2023-02-28T08:46:53;2.90;99.90
15341;DHT22;7770;52.158;5.372;2023-02-28T08:49:39;3.00;99.90
15341;DHT22;7770;52.158;5.372;2023-02-28T08:52:25;2.90;99.90
15341;DHT22;7770;52.158;5.372;2023-02-28T08:55:11;2.90;99.90
15341;DHT22;7770;52.158;5.372;2023-02-28T08:57:57;3.00;99.90
15341;DHT22;7770;52.158;5.372;2023-02-28T09:00:44;3.00;99.90
15341;DHT22;7770;52.158;5.372;2023-02-28T09:03:29;3.00;99.90
15341;DHT22;7770;52.158;5.372;2023-02-28T09:06:17;3.10;99.90
15341;DHT22;7770;52.158;5.372;2023-02-28T09:09:04;3.20;99.90
15341;DHT22;7770;52.158;5.372;2023-02-28T09:11:52;3.30;99.90
15341;DHT22;7770;52.158;5.372;2023-02-28T09:14:38;3.40;99.90
15341;DHT22;7770;52.158;5.372;2023-02-28T09:17:24;3.60;99.90
15341;DHT22;7770;52.158;5.372;2023-02-28T09:20:10;3.80;99.90
15341;DHT22;7770;52.158;5.372;2023-02-28T09:22:57;4.90;99.90
15341;DHT22;7770;52.158;5.372;2023-02-28T09:25:51;5.40;99.90
15341;DHT22;7770;52.158;5.372;2023-02-28T09:28:38;6.30;99.90
15341;DHT22;7770;52.158;5.372;2023-02-28T09:31:27;6.90;99.90
15341;DHT22;7770;52.158;5.372;2023-02-28T09:34:13;7.20;99.90
15341;DHT22;7770;52.158;5.372;2023-02-28T09:36:59;7.40;98.60
15341;DHT22;7770;52.158;5.372;2023-02-28T09:39:45;9.60;95.00
15341;DHT22;7770;52.158;5.372;2023-02-28T09:42:33;12.30;91.80
15341;DHT22;7770;52.158;5.372;2023-02-28T09:45:36;13.60;90.40
15341;DHT22;7770;52.158;5.372;2023-02-28T09:48:34;14.10;85.80
15341;DHT22;7770;52.158;5.372;2023-02-28T09:54:44;9.50;85.80
15341;DHT22;7770;52.158;5.372;2023-02-28T09:57:38;9.50;89.70
15341;DHT22;7770;52.158;5.372;2023-02-28T10:00:34;8.30;89.70
15341;DHT22;7770;52.158;5.372;2023-02-28T10:06:39;7.00;92.60
15341;DHT22;7770;52.158;5.372;2023-02-28T10:09:32;6.70;90.80
15341;DHT22;7770;52.158;5.372;2023-02-28T10:12:20;6.10;92.20
15341;DHT22;7770;52.158;5.372;2023-02-28T10:15:13;6.20;91.70
15341;DHT22;7770;52.158;5.372;2023-02-28T10:18:04;6.40;92.00
15341;DHT22;7770;52.158;5.372;2023-02-28T10:20:51;6.20;91.90
15341;DHT22;7770;52.158;5.372;2023-02-28T10:23:38;7.00;92.00
15341;DHT22;7770;52.158;5.372;2023-02-28T10:26:26;7.70;91.30
15341;DHT22;7770;52.158;5.372;2023-02-28T10:29:15;8.10;90.90
15341;DHT22;7770;52.158;5.372;2023-02-28T10:32:02;9.20;88.60
15341;DHT22;7770;52.158;5.372;2023-02-28T10:35:16;10.20;84.20
15341;DHT22;7770;52.158;5.372;2023-02-28T10:38:25;9.80;86.50
15341;DHT22;7770;52.158;5.372;2023-02-28T10:41:15;9.30;88.80
15341;DHT22;7770;52.158;5.372;2023-02-28T10:44:17;9.30;86.60
15341;DHT22;7770;52.158;5.372;2023-02-28T10:47:16;10.40;83.20
15341;DHT22;7770;52.158;5.372;2023-02-28T10:50:03;11.30;84.90
15341;DHT22;7770;52.158;5.372;2023-02-28T10:52:50;12.40;81.40
15341;DHT22;7770;52.158;5.372;2023-02-28T10:55:36;12.80;79.40
15341;DHT22;7770;52.158;5.372;2023-02-28T10:58:24;13.20;78.00
15341;DHT22;7770;52.158;5.372;2023-02-28T11:07:21;11.80;78.50
15341;DHT22;7770;52.158;5.372;2023-02-28T11:10:19;13.00;76.80
15341;DHT22;7770;52.158;5.372;2023-02-28T11:13:06;13.40;77.50
15341;DHT22;7770;52.158;5.372;2023-02-28T11:15:55;12.80;76.50
15341;DHT22;7770;52.158;5.372;2023-02-28T11:18:55;12.50;78.80
15341;DHT22;7770;52.158;5.372;2023-02-28T11:21:49;13.90;76.60
15341;DHT22;7770;52.158;5.372;2023-02-28T11:24:49;14.10;76.30
15341;DHT22;7770;52.158;5.372;2023-02-28T11:27:46;13.90;74.30
15341;DHT22;7770;52.158;5.372;2023-02-28T11:30:40;14.00;74.00
15341;DHT22;7770;52.158;5.372;2023-02-28T11:33:30;12.50;75.10
15341;DHT22;7770;52.158;5.372;2023-02-28T11:36:29;12.80;76.30
15341;DHT22;7770;52.158;5.372;2023-02-28T11:39:17;13.60;77.00
15341;DHT22;7770;52.158;5.372;2023-02-28T11:45:21;13.40;75.60
15341;DHT22;7770;52.158;5.372;2023-02-28T11:48:21;12.60;76.60
15341;DHT22;7770;52.158;5.372;2023-02-28T11:58:48;14.70;72.30
15341;DHT22;7770;52.158;5.372;2023-02-28T12:02:28;15.00;72.80
15341;DHT22;7770;52.158;5.372;2023-02-28T12:05:36;13.70;72.70
15341;DHT22;7770;52.158;5.372;2023-02-28T12:11:51;12.30;77.10
15341;DHT22;7770;52.158;5.372;2023-02-28T12:18:12;13.00;74.60
15341;DHT22;7770;52.158;5.372;2023-02-28T12:21:42;12.10;77.70
15341;DHT22;7770;52.158;5.372;2023-02-28T12:27:51;12.50;77.20
15341;DHT22;7770;52.158;5.372;2023-02-28T12:30:45;11.50;77.60
15341;DHT22;7770;52.158;5.372;2023-02-28T12:33:40;10.40;77.50
15341;DHT22;7770;52.158;5.372;2023-02-28T12:36:34;10.00;78.70
15341;DHT22;7770;52.158;5.372;2023-02-28T12:39:26;10.80;79.50
15341;DHT22;7770;52.158;5.372;2023-02-28T12:42:24;10.00;81.00
15341;DHT22;7770;52.158;5.372;2023-02-28T12:45:19;8.60;83.30
15341;DHT22;7770;52.158;5.372;2023-02-28T12:48:11;7.80;83.70
15341;DHT22;7770;52.158;5.372;2023-02-28T12:51:01;8.20;85.20
15341;DHT22;7770;52.158;5.372;2023-02-28T12:54:04;7.90;85.00
15341;DHT22;7770;52.158;5.372;2023-02-28T13:00:20;7.70;84.80
15341;DHT22;7770;52.158;5.372;2023-02-28T13:09:57;7.30;85.80
15341;DHT22;7770;52.158;5.372;2023-02-28T13:12:50;7.30;85.40
15341;DHT22;7770;52.158;5.372;2023-02-28T13:15:37;7.40;86.10
15341;DHT22;7770;52.158;5.372;2023-02-28T13:18:40;7.40;86.10
15341;DHT22;7770;52.158;5.372;2023-02-28T13:21:30;7.20;87.50
15341;DHT22;7770;52.158;5.372;2023-02-28T13:24:43;7.20;86.80
15341;DHT22;7770;52.158;5.372;2023-02-28T13:27:40;7.20;86.00
15341;DHT22;7770;52.158;5.372;2023-02-28T13:34:04;7.20;86.60
15341;DHT22;7770;52.158;5.372;2023-02-28T13:36:43;7.10;86.60
15341;DHT22;7770;52.158;5.372;2023-02-28T13:42:58;7.00;87.30
15341;DHT22;7770;52.158;5.372;2023-02-28T13:46:05;7.10;86.10
15341;DHT22;7770;52.158;5.372;2023-02-28T13:48:53;7.20;86.90
15341;DHT22;7770;52.158;5.372;2023-02-28T13:51:44;7.10;86.40
15341;DHT22;7770;52.158;5.372;2023-02-28T13:58:36;6.90;87.30
15341;DHT22;7770;52.158;5.372;2023-02-28T14:07:33;7.00;86.80
15341;DHT22;7770;52.158;5.372;2023-02-28T14:13:40;7.10;87.00
15341;DHT22;7770;52.158;5.372;2023-02-28T14:19:31;7.10;87.00
15341;DHT22;7770;52.158;5.372;2023-02-28T14:25:43;6.80;86.30
15341;DHT22;7770;52.158;5.372;2023-02-28T14:32:41;6.80;86.40
15341;DHT22;7770;52.158;5.372;2023-02-28T14:38:51;6.90;86.30
15341;DHT22;7770;52.158;5.372;2023-02-28T14:41:41;6.80;86.30
15341;DHT22;7770;52.158;5.372;2023-02-28T14:44:28;6.80;87.10
15341;DHT22;7770;52.158;5.372;2023-02-28T14:47:15;6.90;86.40
15341;DHT22;7770;52.158;5.372;2023-02-28T14:50:04;6.90;86.90
15341;DHT22;7770;52.158;5.372;2023-02-28T14:52:54;7.10;86.80
15341;DHT22;7770;52.158;5.372;2023-02-28T14:55:44;6.90;85.80
15341;DHT22;7770;52.158;5.372;2023-02-28T14:58:33;7.00;86.70
15341;DHT22;7770;52.158;5.372;2023-02-28T15:01:21;6.90;87.10
15341;DHT22;7770;52.158;5.372;2023-02-28T15:04:22;7.00;87.10
15341;DHT22;7770;52.158;5.372;2023-02-28T15:07:15;7.00;87.40
15341;DHT22;7770;52.158;5.372;2023-02-28T15:10:13;6.90;88.20
15341;DHT22;7770;52.158;5.372;2023-02-28T15:13:07;6.90;88.40
15341;DHT22;7770;52.158;5.372;2023-02-28T15:16:01;6.80;86.90
15341;DHT22;7770;52.158;5.372;2023-02-28T15:18:56;6.80;87.00
15341;DHT22;7770;52.158;5.372;2023-02-28T15:21:50;6.70;86.60
15341;DHT22;7770;52.158;5.372;2023-02-28T15:24:46;6.70;86.50
15341;DHT22;7770;52.158;5.372;2023-02-28T15:27:45;6.70;86.50
15341;DHT22;7770;52.158;5.372;2023-02-28T15:30:34;6.70;87.10
15341;DHT22;7770;52.158;5.372;2023-02-28T15:33:29;6.80;88.00
15341;DHT22;7770;52.158;5.372;2023-02-28T15:36:18;6.60;87.00
15341;DHT22;7770;52.158;5.372;2023-02-28T15:39:23;6.60;88.30
15341;DHT22;7770;52.158;5.372;2023-02-28T15:42:23;6.70;88.90
15341;DHT22;7770;52.158;5.372;2023-02-28T15:45:47;6.60;88.70
15341;DHT22;7770;52.158;5.372;2023-02-28T15:48:51;6.60;88.60
15341;DHT22;7770;52.158;5.372;2023-02-28T15:51:39;6.50;87.80
15341;DHT22;7770;52.158;5.372;2023-02-28T15:54:32;6.50;88.70
15341;DHT22;7770;52.158;5.372;2023-02-28T15:57:25;6.50;88.90
15341;DHT22;7770;52.158;5.372;2023-02-28T16:00:15;6.60;89.60
15341;DHT22;7770;52.158;5.372;2023-02-28T16:03:27;6.50;89.00
15341;DHT22;7770;52.158;5.372;2023-02-28T16:06:26;6.50;89.90
15341;DHT22;7770;52.158;5.372;2023-02-28T16:09:19;6.50;89.80
15341;DHT22;7770;52.158;5.372;2023-02-28T16:12:05;6.50;89.10
15341;DHT22;7770;52.158;5.372;2023-02-28T16:14:52;6.50;89.40
15341;DHT22;7770;52.158;5.372;2023-02-28T16:17:40;6.40;89.90
15341;DHT22;7770;52.158;5.372;2023-02-28T16:20:28;6.30;90.00
15341;DHT22;7770;52.158;5.372;2023-02-28T16:23:15;6.30;90.00
15341;DHT22;7770;52.158;5.372;2023-02-28T16:26:03;6.20;90.20
15341;DHT22;7770;52.158;5.372;2023-02-28T16:28:51;6.20;90.40
15341;DHT22;7770;52.158;5.372;2023-02-28T16:31:38;6.20;90.60
15341;DHT22;7770;52.158;5.372;2023-02-28T16:34:24;6.20;90.50
15341;DHT22;7770;52.158;5.372;2023-02-28T16:37:16;6.10;90.50
15341;DHT22;7770;52.158;5.372;2023-02-28T16:40:03;6.10;90.70
15341;DHT22;7770;52.158;5.372;2023-02-28T16:42:51;6.10;90.70
15341;DHT22;7770;52.158;5.372;2023-02-28T16:45:38;6.00;90.90
15341;DHT22;7770;52.158;5.372;2023-02-28T16:48:24;5.90;90.80
15341;DHT22;7770;52.158;5.372;2023-02-28T16:51:15;5.90;91.00
15341;DHT22;7770;52.158;5.372;2023-02-28T16:54:01;5.80;91.30
15341;DHT22;7770;52.158;5.372;2023-02-28T16:56:48;5.80;91.10
15341;DHT22;7770;52.158;5.372;2023-02-28T16:59:35;5.80;91.20
15341;DHT22;7770;52.158;5.372;2023-02-28T17:02:21;5.70;91.40
15341;DHT22;7770;52.158;5.372;2023-02-28T17:05:08;5.70;91.60
15341;DHT22;7770;52.158;5.372;2023-02-28T17:07:56;5.50;91.90
15341;DHT22;7770;52.158;5.372;2023-02-28T17:10:42;5.50;91.90
15341;DHT22;7770;52.158;5.372;2023-02-28T17:13:28;5.50;92.00
15341;DHT22;7770;52.158;5.372;2023-02-28T17:16:25;5.40;92.20
15341;DHT22;7770;52.158;5.372;2023-02-28T17:19:15;5.40;92.30
15341;DHT22;7770;52.158;5.372;2023-02-28T17:22:02;5.30;92.60
15341;DHT22;7770;52.158;5.372;2023-02-28T17:24:48;5.30;92.60
15341;DHT22;7770;52.158;5.372;2023-02-28T17:27:35;5.30;92.50
15341;DHT22;7770;52.158;5.372;2023-02-28T17:30:24;5.20;92.80
15341;DHT22;7770;52.158;5.372;2023-02-28T17:33:12;5.30;94.40
15341;DHT22;7770;52.158;5.372;2023-02-28T17:35:58;5.40;96.80
15341;DHT22;7770;52.158;5.372;2023-02-28T17:38:44;5.30;93.40
15341;DHT22;7770;52.158;5.372;2023-02-28T17:41:30;5.10;93.60
15341;DHT22;7770;52.158;5.372;2023-02-28T17:44:17;4.90;93.90
15341;DHT22;7770;52.158;5.372;2023-02-28T17:47:03;4.80;94.40
15341;DHT22;7770;52.158;5.372;2023-02-28T17:49:49;4.70;94.60
15341;DHT22;7770;52.158;5.372;2023-02-28T17:52:35;4.60;94.80
15341;DHT22;7770;52.158;5.372;2023-02-28T17:55:22;4.50;94.90
15341;DHT22;7770;52.158;5.372;2023-02-28T17:58:10;4.40;95.40
15341;DHT22;7770;52.158;5.372;2023-02-28T18:00:59;4.30;96.00
15341;DHT22;7770;52.158;5.372;2023-02-28T18:03:46;4.20;96.00
15341;DHT22;7770;52.158;5.372;2023-02-28T18:06:43;4.10;96.40
15341;DHT22;7770;52.158;5.372;2023-02-28T18:09:35;4.10;96.70
15341;DHT22;7770;52.158;5.372;2023-02-28T18:12:21;4.20;96.80
15341;DHT22;7770;52.158;5.372;2023-02-28T18:15:08;4.30;96.90
15341;DHT22;7770;52.158;5.372;2023-02-28T18:17:54;4.30;97.00
15341;DHT22;7770;52.158;5.372;2023-02-28T18:20:40;4.30;97.20
15341;DHT22;7770;52.158;5.372;2023-02-28T18:23:26;4.30;97.20
15341;DHT22;7770;52.158;5.372;2023-02-28T18:26:14;4.20;97.40
15341;DHT22;7770;52.158;5.372;2023-02-28T18:29:01;4.20;97.60
15341;DHT22;7770;52.158;5.372;2023-02-28T18:31:47;4.10;97.70
15341;DHT22;7770;52.158;5.372;2023-02-28T18:34:33;4.00;98.00
15341;DHT22;7770;52.158;5.372;2023-02-28T18:37:19;4.00;98.30
15341;DHT22;7770;52.158;5.372;2023-02-28T18:40:06;4.00;98.20
15341;DHT22;7770;52.158;5.372;2023-02-28T18:42:53;4.00;98.50
15341;DHT22;7770;52.158;5.372;2023-02-28T18:45:39;3.80;98.80
15341;DHT22;7770;52.158;5.372;2023-02-28T18:48:25;3.70;98.90
15341;DHT22;7770;52.158;5.372;2023-02-28T18:51:16;3.80;98.80
15341;DHT22;7770;52.158;5.372;2023-02-28T18:54:04;3.80;98.90
15341;DHT22;7770;52.158;5.372;2023-02-28T18:56:50;3.80;98.90
15341;DHT22;7770;52.158;5.372;2023-02-28T18:59:38;3.70;99.40
15341;DHT22;7770;52.158;5.372;2023-02-28T19:02:24;3.70;99.20
15341;DHT22;7770;52.158;5.372;2023-02-28T19:05:10;3.70;99.20
15341;DHT22;7770;52.158;5.372;2023-02-28T19:07:56;3.70;99.20
15341;DHT22;7770;52.158;5.372;2023-02-28T19:10:42;3.60;99.60
15341;DHT22;7770;52.158;5.372;2023-02-28T19:13:28;3.50;99.60
15341;DHT22;7770;52.158;5.372;2023-02-28T19:16:17;3.40;99.80
15341;DHT22;7770;52.158;5.372;2023-02-28T19:19:04;3.30;99.90
15341;DHT22;7770;52.158;5.372;2023-02-28T19:21:50;3.20;99.90
15341;DHT22;7770;52.158;5.372;2023-02-28T19:24:36;3.20;99.90
15341;DHT22;7770;52.158;5.372;2023-02-28T19:27:22;3.20;99.90
15341;DHT22;7770;52.158;5.372;2023-02-28T19:30:09;3.10;99.90
15341;DHT22;7770;52.158;5.372;2023-02-28T19:32:55;3.10;99.90
15341;DHT22;7770;52.158;5.372;2023-02-28T19:35:42;3.10;99.90
15341;DHT22;7770;52.158;5.372;2023-02-28T19:38:28;2.90;99.90
15341;DHT22;7770;52.158;5.372;2023-02-28T19:41:15;2.90;99.90
15341;DHT22;7770;52.158;5.372;2023-02-28T19:44:02;2.80;99.90
15341;DHT22;7770;52.158;5.372;2023-02-28T19:46:48;2.70;99.90
15341;DHT22;7770;52.158;5.372;2023-02-28T19:49:34;2.60;99.90
15341;DHT22;7770;52.158;5.372;2023-02-28T19:52:21;2.50;99.90
15341;DHT22;7770;52.158;5.372;2023-02-28T19:55:08;2.40;99.90
15341;DHT22;7770;52.158;5.372;2023-02-28T19:57:54;2.30;99.90
15341;DHT22;7770;52.158;5.372;2023-02-28T20:00:40;2.20;99.90
15341;DHT22;7770;52.158;5.372;2023-02-28T20:03:26;2.20;99.90
15341;DHT22;7770;52.158;5.372;2023-02-28T20:06:12;2.10;99.90
15341;DHT22;7770;52.158;5.372;2023-02-28T20:08:59;2.00;99.90
15341;DHT22;7770;52.158;5.372;2023-02-28T20:11:45;2.00;99.90